createdAt,value
2023-08-14T00:01:13.800Z,1.73
2023-08-14T00:03:40.315Z,1.05
2023-08-14T00:06:06.840Z,1.48
2023-08-14T00:08:33.284Z,1.20
2023-08-14T00:10:59.785Z,1.50
2023-08-14T00:13:26.329Z,1.35
2023-08-14T00:15:52.830Z,1.45
2023-08-14T00:18:19.315Z,1.02
2023-08-14T00:20:45.987Z,2.05
2023-08-14T00:23:12.501Z,2.33
2023-08-14T00:25:39.494Z,1.17
2023-08-14T00:28:06.297Z,1.23
2023-08-14T00:30:32.864Z,1.48
2023-08-14T00:32:59.476Z,1.73
2023-08-14T00:35:25.960Z,2.35
2023-08-14T00:37:52.415Z,1.65
2023-08-14T00:40:18.922Z,2.03
2023-08-14T00:42:45.852Z,2.33
2023-08-14T00:45:12.624Z,0.50
2023-08-14T00:47:42.828Z,1.50
2023-08-14T00:50:09.886Z,1.23
2023-08-14T00:52:38.802Z,1.05
2023-08-14T00:55:07.355Z,1.38
2023-08-14T00:57:33.889Z,1.27
2023-08-14T01:00:01.351Z,1.20
2023-08-14T01:02:28.218Z,0.90
2023-08-14T01:04:54.782Z,0.80
2023-08-14T01:07:21.223Z,0.88
2023-08-14T01:09:49.006Z,1.52
2023-08-14T01:12:31.215Z,0.85
2023-08-14T01:15:04.304Z,1.15
2023-08-14T01:17:35.056Z,1.48
2023-08-14T01:20:03.834Z,1.23
2023-08-14T01:22:46.454Z,1.73
2023-08-14T01:25:22.115Z,3.03
2023-08-14T01:27:48.795Z,0.82
2023-08-14T01:30:15.310Z,1.40
2023-08-14T01:32:41.774Z,1.85
2023-08-14T01:35:08.924Z,1.00
2023-08-14T01:38:00.111Z,0.63
2023-08-14T01:40:50.192Z,0.73
2023-08-14T01:43:32.883Z,2.10
2023-08-14T01:45:59.433Z,1.42
2023-08-14T01:48:26.959Z,0.63
2023-08-14T01:50:54.799Z,1.85
2023-08-14T01:53:21.312Z,1.65
2023-08-14T01:55:47.757Z,1.02
2023-08-14T01:58:14.195Z,0.93
2023-08-14T02:00:40.691Z,1.08
2023-08-14T02:03:07.508Z,0.95
2023-08-14T02:05:34.114Z,0.68
2023-08-14T02:08:00.649Z,0.50
2023-08-14T02:10:27.158Z,1.95
2023-08-14T02:12:53.724Z,2.67
2023-08-14T02:15:20.227Z,0.65
2023-08-14T02:17:46.713Z,0.85
2023-08-14T02:20:13.236Z,0.47
2023-08-14T02:22:39.700Z,1.40
2023-08-14T02:25:06.643Z,2.47
2023-08-14T02:27:33.122Z,1.05
2023-08-14T02:29:59.745Z,1.30
2023-08-14T02:32:26.314Z,0.75
2023-08-14T02:34:53.150Z,1.17
2023-08-14T02:37:20.329Z,0.80
2023-08-14T02:39:46.821Z,0.95
2023-08-14T02:42:16.093Z,0.55
2023-08-14T02:44:42.877Z,0.98
2023-08-14T02:47:09.386Z,0.73
2023-08-14T02:49:35.847Z,1.95
2023-08-14T02:52:02.371Z,1.00
2023-08-14T02:54:28.857Z,0.75
2023-08-14T02:56:55.512Z,2.05
2023-08-14T02:59:22.581Z,1.65
2023-08-14T03:01:49.194Z,1.13
2023-08-14T03:04:17.101Z,2.05
2023-08-14T03:06:43.682Z,0.65
2023-08-14T03:09:10.790Z,0.95
2023-08-14T03:11:37.250Z,1.17
2023-08-14T03:14:03.865Z,0.88
2023-08-14T03:16:30.435Z,1.40
2023-08-14T03:18:57.035Z,0.82
2023-08-14T03:21:23.567Z,1.90
2023-08-14T03:23:50.097Z,0.95
2023-08-14T03:26:16.570Z,0.98
2023-08-14T03:28:43.067Z,0.68
2023-08-14T03:31:09.568Z,1.40
2023-08-14T03:33:36.066Z,1.05
2023-08-14T03:36:02.647Z,1.85
2023-08-14T03:38:29.143Z,1.45
2023-08-14T03:40:55.607Z,1.50
2023-08-14T03:43:22.066Z,0.65
2023-08-14T03:45:48.540Z,0.40
2023-08-14T03:48:16.187Z,2.42
2023-08-14T03:50:46.230Z,0.88
2023-08-14T03:53:12.677Z,1.88
2023-08-14T03:55:39.178Z,0.65
2023-08-14T03:58:05.653Z,0.80
2023-08-14T04:00:32.168Z,0.65
2023-08-14T04:02:58.813Z,1.15
2023-08-14T04:05:25.398Z,2.45
2023-08-14T04:07:51.889Z,0.98
2023-08-14T04:10:18.421Z,0.70
2023-08-14T04:12:44.903Z,0.60
2023-08-14T04:15:18.397Z,0.70
2023-08-14T04:17:44.913Z,1.67
2023-08-14T04:20:12.162Z,0.77
2023-08-14T04:22:38.723Z,0.82
2023-08-14T04:25:05.712Z,1.45
2023-08-14T04:27:32.187Z,0.70
2023-08-14T04:29:58.746Z,0.98
2023-08-14T04:32:26.797Z,1.05
2023-08-14T04:34:53.341Z,1.55
2023-08-14T04:37:19.807Z,0.70
2023-08-14T04:39:46.278Z,1.20
2023-08-14T04:42:12.818Z,1.25
2023-08-14T04:44:39.329Z,1.25
2023-08-14T04:47:05.938Z,2.25
2023-08-14T04:49:32.752Z,0.57
2023-08-14T04:51:59.265Z,0.75
2023-08-14T04:54:27.060Z,1.45
2023-08-14T04:56:53.549Z,1.23
2023-08-14T04:59:20.064Z,0.60
2023-08-14T05:01:46.686Z,1.80
2023-08-14T05:04:13.301Z,1.20
2023-08-14T05:06:39.800Z,0.75
2023-08-14T05:09:24.057Z,0.82
2023-08-14T05:11:52.777Z,0.73
2023-08-14T05:14:19.420Z,1.00
2023-08-14T05:16:46.707Z,0.60
2023-08-14T05:19:13.205Z,1.05
2023-08-14T05:21:39.765Z,0.60
2023-08-14T05:24:06.383Z,0.77
2023-08-14T05:26:32.807Z,1.08
2023-08-14T05:28:59.409Z,1.00
2023-08-14T05:31:25.976Z,1.95
2023-08-14T05:33:52.510Z,0.82
2023-08-14T05:36:18.973Z,1.33
2023-08-14T05:38:45.823Z,1.90
2023-08-14T05:41:12.464Z,0.77
2023-08-14T05:43:38.961Z,2.33
2023-08-14T05:46:05.568Z,0.75
2023-08-14T05:48:32.088Z,1.70
2023-08-14T05:50:58.653Z,0.63
2023-08-14T05:53:25.131Z,0.60
2023-08-14T05:55:51.607Z,1.00
2023-08-14T05:58:18.088Z,0.70
2023-08-14T06:00:44.612Z,1.17
2023-08-14T06:03:11.175Z,0.80
2023-08-14T06:05:37.757Z,0.93
2023-08-14T06:08:05.387Z,1.80
2023-08-14T06:10:31.818Z,2.03
2023-08-14T06:12:58.366Z,0.80
2023-08-14T06:15:24.928Z,1.52
2023-08-14T06:17:52.263Z,1.30
2023-08-14T06:20:18.818Z,1.17
2023-08-14T06:22:46.548Z,0.65
2023-08-14T06:25:14.558Z,1.17
2023-08-14T06:27:41.919Z,1.23
2023-08-14T06:30:09.873Z,1.73
2023-08-14T06:32:37.203Z,1.17
2023-08-14T06:35:04.840Z,1.45
2023-08-14T06:37:31.766Z,1.23
2023-08-14T06:39:58.302Z,0.70
2023-08-14T06:42:24.773Z,1.48
2023-08-14T06:44:51.239Z,1.25
2023-08-14T06:47:17.752Z,1.88
2023-08-14T06:49:44.209Z,1.42
2023-08-14T06:52:10.695Z,1.23
2023-08-14T06:54:37.125Z,2.80
2023-08-14T06:57:03.855Z,2.65
2023-08-14T06:59:31.349Z,2.72
2023-08-14T07:01:57.880Z,4.45
2023-08-14T07:04:24.340Z,2.08
2023-08-14T07:06:50.823Z,1.30
2023-08-14T07:09:17.340Z,3.53
2023-08-14T07:11:44.261Z,5.18
2023-08-14T07:14:10.786Z,5.43
2023-08-14T07:16:37.386Z,2.55
2023-08-14T07:19:04.279Z,2.00
2023-08-14T07:21:30.853Z,6.57
2023-08-14T07:23:57.296Z,2.35
2023-08-14T07:26:23.774Z,2.50
2023-08-14T07:28:50.248Z,3.70
2023-08-14T07:31:16.853Z,4.13
2023-08-14T07:33:43.462Z,3.80
2023-08-14T07:36:09.946Z,5.93
2023-08-14T07:38:36.515Z,3.55
2023-08-14T07:41:03.120Z,5.95
2023-08-14T07:43:29.595Z,4.40
2023-08-14T07:45:56.129Z,2.80
2023-08-14T07:48:22.779Z,3.85
2023-08-14T07:50:55.573Z,3.47
2023-08-14T07:53:22.246Z,2.15
2023-08-14T07:55:48.853Z,3.78
2023-08-14T07:58:15.476Z,2.45
2023-08-14T08:00:42.095Z,3.10
2023-08-14T08:03:08.705Z,2.97
2023-08-14T08:05:35.244Z,1.58
2023-08-14T08:08:01.761Z,2.13
2023-08-14T08:10:28.892Z,2.90
2023-08-14T08:12:55.385Z,2.40
2023-08-14T08:15:21.956Z,1.73
2023-08-14T08:17:48.551Z,2.80
2023-08-14T08:20:15.147Z,3.30
2023-08-14T08:22:41.764Z,1.85
2023-08-14T08:25:08.544Z,3.72
2023-08-14T08:27:36.486Z,2.30
2023-08-14T08:30:04.611Z,2.40
2023-08-14T08:32:31.349Z,2.38
2023-08-14T08:34:57.884Z,3.08
2023-08-14T08:37:24.395Z,4.28
2023-08-14T08:39:53.718Z,2.97
2023-08-14T08:42:20.790Z,3.42
2023-08-14T08:44:47.684Z,2.50
2023-08-14T08:47:23.496Z,2.85
2023-08-14T08:49:50.636Z,3.33
2023-08-14T08:52:18.509Z,1.80
2023-08-14T08:54:45.645Z,3.13
2023-08-14T08:57:12.736Z,3.05
2023-08-14T08:59:41.205Z,3.28
2023-08-14T09:02:10.765Z,1.88
2023-08-14T09:04:37.427Z,3.85
2023-08-14T09:07:04.043Z,3.60
2023-08-14T09:09:30.580Z,2.75
2023-08-14T09:11:57.064Z,4.40
2023-08-14T09:14:23.866Z,2.08
2023-08-14T09:16:54.384Z,6.63
2023-08-14T09:19:21.196Z,1.95
2023-08-14T09:21:47.775Z,3.85
2023-08-14T09:24:14.593Z,4.45
2023-08-14T09:26:43.135Z,6.30
2023-08-14T09:29:13.116Z,3.28
2023-08-14T09:31:44.231Z,3.85
2023-08-14T09:34:16.991Z,4.00
2023-08-14T09:36:44.669Z,2.72
2023-08-14T09:39:11.328Z,3.85
2023-08-14T09:41:37.981Z,3.35
2023-08-14T09:44:04.803Z,2.00
2023-08-14T09:46:32.496Z,2.50
2023-08-14T09:48:59.016Z,4.07
2023-08-14T09:51:25.499Z,4.15
2023-08-14T09:53:56.675Z,2.88
2023-08-14T09:56:23.964Z,3.85
2023-08-14T09:58:51.403Z,7.05
2023-08-14T10:01:19.320Z,4.85
2023-08-14T10:03:52.920Z,6.10
2023-08-14T10:06:19.970Z,5.95
2023-08-14T10:08:50.306Z,7.88
2023-08-14T10:11:19.846Z,2.85
2023-08-14T10:13:52.169Z,5.53
2023-08-14T10:16:23.229Z,3.42
2023-08-14T10:18:54.254Z,4.53
2023-08-14T10:21:21.663Z,7.50
2023-08-14T10:23:50.224Z,6.07
2023-08-14T10:26:18.086Z,5.13
2023-08-14T10:28:44.894Z,3.78
2023-08-14T10:31:12.061Z,3.92
2023-08-14T10:33:39.921Z,3.08
2023-08-14T10:36:06.376Z,4.63
2023-08-14T10:38:43.941Z,3.30
2023-08-14T10:41:10.990Z,3.80
2023-08-14T10:43:38.184Z,2.65
2023-08-14T10:46:11.841Z,3.85
2023-08-14T10:48:40.045Z,3.70
2023-08-14T10:51:10.561Z,2.60
2023-08-14T10:53:38.337Z,2.78
2023-08-14T10:56:09.074Z,1.58
2023-08-14T10:58:35.556Z,3.03
2023-08-14T11:01:02.980Z,1.75
2023-08-14T11:03:29.824Z,4.22
2023-08-14T11:05:56.347Z,2.00
2023-08-14T11:08:23.114Z,3.35
2023-08-14T11:10:50.592Z,2.70
2023-08-14T11:13:17.467Z,2.60
2023-08-14T11:15:44.649Z,2.00
2023-08-14T11:18:11.516Z,5.13
2023-08-14T11:20:42.586Z,1.60
2023-08-14T11:23:10.600Z,3.03
2023-08-14T11:25:38.127Z,2.60
2023-08-14T11:28:04.985Z,2.72
2023-08-14T11:30:33.769Z,2.17
2023-08-14T11:33:02.680Z,1.92
2023-08-14T11:35:29.195Z,2.75
2023-08-14T11:37:56.478Z,2.08
2023-08-14T11:40:23.489Z,4.20
2023-08-14T11:42:49.953Z,1.75
2023-08-14T11:45:16.507Z,2.85
2023-08-14T11:47:45.070Z,3.28
2023-08-14T11:50:12.396Z,2.17
2023-08-14T11:52:39.052Z,2.38
2023-08-14T11:55:06.207Z,2.25
2023-08-14T11:57:33.534Z,1.92
2023-08-14T12:00:04.500Z,1.67
2023-08-14T12:02:32.379Z,1.77
2023-08-14T12:05:01.633Z,3.40
2023-08-14T12:07:29.133Z,1.75
2023-08-14T12:09:56.031Z,3.63
2023-08-14T12:12:23.392Z,2.65
2023-08-14T12:14:51.763Z,2.30
2023-08-14T12:17:20.950Z,1.70
2023-08-14T12:19:55.572Z,3.45
2023-08-14T12:22:23.781Z,1.40
2023-08-14T12:24:50.600Z,1.90
2023-08-14T12:27:22.561Z,3.03
2023-08-14T12:29:50.822Z,3.45
2023-08-14T12:32:19.548Z,2.10
2023-08-14T12:34:46.700Z,1.80
2023-08-14T12:37:13.372Z,2.78
2023-08-14T12:39:39.968Z,1.85
2023-08-14T12:42:07.433Z,5.07
2023-08-14T12:44:34.147Z,7.57
2023-08-14T12:47:00.696Z,2.65
2023-08-14T12:49:27.282Z,5.00
2023-08-14T12:51:53.824Z,2.97
2023-08-14T12:54:21.886Z,2.42
2023-08-14T12:56:48.925Z,3.33
2023-08-14T12:59:15.447Z,3.17
2023-08-14T13:01:47.285Z,5.20
2023-08-14T13:04:14.525Z,4.55
2023-08-14T13:06:41.328Z,4.60
2023-08-14T13:09:07.954Z,8.38
2023-08-14T13:11:34.733Z,2.80
2023-08-14T13:14:01.244Z,2.08
2023-08-14T13:16:27.972Z,4.45
2023-08-14T13:18:54.503Z,2.67
2023-08-14T13:21:20.966Z,5.30
2023-08-14T13:23:50.167Z,2.50
2023-08-14T13:26:26.602Z,1.70
2023-08-14T13:28:54.420Z,5.03
2023-08-14T13:31:21.018Z,3.35
2023-08-14T13:33:47.582Z,2.72
2023-08-14T13:36:14.054Z,1.55
2023-08-14T13:38:40.575Z,1.80
2023-08-14T13:41:07.258Z,5.30
2023-08-14T13:43:33.801Z,4.00
2023-08-14T13:46:00.384Z,2.55
2023-08-14T13:48:26.986Z,1.48
2023-08-14T13:50:53.515Z,1.92
2023-08-14T13:53:20.025Z,2.47
2023-08-14T13:55:46.545Z,2.70
2023-08-14T13:58:12.975Z,2.00
2023-08-14T14:00:39.569Z,3.15
2023-08-14T14:03:06.121Z,2.75
2023-08-14T14:05:32.736Z,1.20
2023-08-14T14:07:59.430Z,3.38
2023-08-14T14:10:27.359Z,2.22
2023-08-14T14:15:24.127Z,2.00
2023-08-14T14:17:50.804Z,2.03
2023-08-14T14:20:17.396Z,3.33
2023-08-14T14:22:44.451Z,1.33
2023-08-14T14:25:12.008Z,1.20
2023-08-14T14:27:38.921Z,1.30
2023-08-14T14:30:06.415Z,2.15
2023-08-14T14:32:33.023Z,1.67
2023-08-14T14:34:59.553Z,3.33
2023-08-14T14:37:26.037Z,1.17
2023-08-14T14:39:52.547Z,3.22
2023-08-14T14:42:19.017Z,1.60
2023-08-14T14:44:45.466Z,4.72
2023-08-14T14:47:11.919Z,5.60
2023-08-14T14:49:38.377Z,3.92
2023-08-14T14:52:05.134Z,2.83
2023-08-14T14:54:31.578Z,3.63
2023-08-14T14:56:58.016Z,2.50
2023-08-14T14:59:24.530Z,2.75
2023-08-14T15:01:51.018Z,4.20
2023-08-14T15:04:17.488Z,1.70
2023-08-14T15:06:43.964Z,4.45
2023-08-14T15:09:10.424Z,1.85
2023-08-14T15:11:36.947Z,2.28
2023-08-14T15:14:03.481Z,3.30
2023-08-14T15:16:33.097Z,4.47
2023-08-14T15:19:00.032Z,15.15
2023-08-14T15:21:26.613Z,14.82
2023-08-14T15:23:53.124Z,14.50
2023-08-14T15:26:19.591Z,14.88
2023-08-14T15:28:46.062Z,13.27
2023-08-14T15:31:12.548Z,11.80
2023-08-14T15:33:41.099Z,14.18
2023-08-14T15:36:07.555Z,11.02
2023-08-14T15:38:34.080Z,9.52
2023-08-14T15:41:00.595Z,10.10
2023-08-14T15:43:27.107Z,11.43
2023-08-14T15:46:03.825Z,9.98
2023-08-14T15:48:30.699Z,6.50
2023-08-14T15:50:57.229Z,8.60
2023-08-14T15:53:23.703Z,8.38
2023-08-14T15:55:50.420Z,10.10
2023-08-14T15:58:17.038Z,5.70
2023-08-14T16:00:43.522Z,7.63
2023-08-14T16:03:10.000Z,8.25
2023-08-14T16:05:36.633Z,6.82
2023-08-14T16:08:03.261Z,7.82
2023-08-14T16:10:29.753Z,6.05
2023-08-14T16:12:56.206Z,5.95
2023-08-14T16:15:22.649Z,7.78
2023-08-14T16:17:49.178Z,7.45
2023-08-14T16:20:15.802Z,7.63
2023-08-14T16:22:42.285Z,5.35
2023-08-14T16:25:09.190Z,4.93
2023-08-14T16:27:35.750Z,7.38
2023-08-14T16:30:02.208Z,5.95
2023-08-14T16:32:28.659Z,7.05
2023-08-14T16:34:55.162Z,4.85
2023-08-14T16:37:21.921Z,5.50
2023-08-14T16:39:48.658Z,4.68
2023-08-14T16:42:15.147Z,5.30
2023-08-14T16:44:41.595Z,4.88
2023-08-14T16:47:08.037Z,4.30
2023-08-14T16:49:34.474Z,4.78
2023-08-14T16:52:00.927Z,4.95
2023-08-14T16:54:27.355Z,4.22
2023-08-14T16:56:53.824Z,4.32
2023-08-14T16:59:20.270Z,4.05
2023-08-14T17:01:46.752Z,4.20
2023-08-14T17:04:13.254Z,5.63
2023-08-14T17:06:39.716Z,5.75
2023-08-14T17:09:06.144Z,4.53
2023-08-14T17:11:33.110Z,3.13
2023-08-14T17:13:59.541Z,4.55
2023-08-14T17:16:26.045Z,5.03
2023-08-14T17:18:52.520Z,3.95
2023-08-14T17:21:18.956Z,2.85
2023-08-14T17:23:45.415Z,4.13
2023-08-14T17:26:11.921Z,3.92
2023-08-14T17:28:38.447Z,5.10
2023-08-14T17:31:04.905Z,3.22
2023-08-14T17:33:31.418Z,3.20
2023-08-14T17:35:58.788Z,3.25
2023-08-14T17:38:25.228Z,3.47
2023-08-14T17:40:52.005Z,3.83
2023-08-14T17:43:21.533Z,3.20
2023-08-14T17:45:49.711Z,4.72
2023-08-14T17:48:16.362Z,2.80
2023-08-14T17:50:42.870Z,3.80
2023-08-14T17:53:09.322Z,3.40
2023-08-14T17:55:35.824Z,3.38
2023-08-14T17:58:02.309Z,3.58
2023-08-14T18:00:28.789Z,3.63
2023-08-14T18:02:55.355Z,2.88
2023-08-14T18:05:21.956Z,2.08
2023-08-14T18:07:48.441Z,2.40
2023-08-14T18:10:15.009Z,3.58
2023-08-14T18:12:41.728Z,3.72
2023-08-14T18:15:08.432Z,1.98
2023-08-14T18:17:34.949Z,2.03
2023-08-14T18:20:01.408Z,1.77
2023-08-14T18:22:27.821Z,1.90
2023-08-14T18:24:54.282Z,2.70
2023-08-14T18:27:20.991Z,2.75
2023-08-14T18:29:47.615Z,2.80
2023-08-14T18:32:14.157Z,2.10
2023-08-14T18:34:40.610Z,2.15
2023-08-14T18:37:08.106Z,2.50
2023-08-14T18:39:34.593Z,2.47
2023-08-14T18:42:01.037Z,2.08
2023-08-14T18:44:27.508Z,1.80
2023-08-14T18:46:53.972Z,1.90
2023-08-14T18:49:20.430Z,1.92
2023-08-14T18:51:46.905Z,1.73
2023-08-14T18:54:13.712Z,1.95
2023-08-14T18:56:40.184Z,2.20
2023-08-14T18:59:06.620Z,1.85
2023-08-14T19:01:33.172Z,2.42
2023-08-14T19:03:59.638Z,2.55
2023-08-14T19:06:26.122Z,2.40
2023-08-14T19:08:52.584Z,2.15
2023-08-14T19:11:19.000Z,2.05
2023-08-14T19:13:45.454Z,1.77
2023-08-14T19:16:11.913Z,1.95
2023-08-14T19:18:38.429Z,1.60
2023-08-14T19:21:04.954Z,1.80
2023-08-14T19:23:32.715Z,2.30
2023-08-14T19:26:00.231Z,1.50
2023-08-14T19:28:27.705Z,2.45
2023-08-14T19:30:54.189Z,4.25
2023-08-14T19:33:21.580Z,3.88
2023-08-14T19:35:48.122Z,3.17
2023-08-14T19:38:15.100Z,4.35
2023-08-14T19:40:41.594Z,4.03
2023-08-14T19:43:08.084Z,3.30
2023-08-14T19:45:34.690Z,3.30
2023-08-14T19:48:01.200Z,5.40
2023-08-14T19:50:27.678Z,4.03
2023-08-14T19:52:54.184Z,2.65
2023-08-14T19:55:20.667Z,5.63
2023-08-14T19:57:47.239Z,2.30
2023-08-14T20:00:13.919Z,4.05
2023-08-14T20:02:40.439Z,3.17
2023-08-14T20:05:07.127Z,2.25
2023-08-14T20:07:33.606Z,2.80
2023-08-14T20:10:00.120Z,3.17
2023-08-14T20:12:26.724Z,2.45
2023-08-14T20:14:53.204Z,3.08
2023-08-14T20:17:19.974Z,1.48
2023-08-14T20:19:46.585Z,2.08
2023-08-14T20:22:13.051Z,2.70
2023-08-14T20:24:39.613Z,2.67
2023-08-14T20:27:06.186Z,1.88
2023-08-14T20:29:32.680Z,2.15
2023-08-14T20:31:59.240Z,1.92
2023-08-14T20:34:27.472Z,2.15
2023-08-14T20:36:53.945Z,2.38
2023-08-14T20:39:20.428Z,2.03
2023-08-14T20:41:46.939Z,2.10
2023-08-14T20:44:13.435Z,2.03
2023-08-14T20:46:39.930Z,2.90
2023-08-14T20:49:06.410Z,1.70
2023-08-14T20:51:32.875Z,5.30
2023-08-14T20:53:59.318Z,2.53
2023-08-14T20:56:25.808Z,1.58
2023-08-14T20:58:52.251Z,1.77
2023-08-14T21:01:18.777Z,1.63
2023-08-14T21:03:45.356Z,2.28
2023-08-14T21:06:11.959Z,2.55
2023-08-14T21:08:38.534Z,2.72
2023-08-14T21:11:05.095Z,3.40
2023-08-14T21:13:31.630Z,2.03
2023-08-14T21:15:59.544Z,2.65
2023-08-14T21:18:26.062Z,2.30
2023-08-14T21:20:52.499Z,2.88
2023-08-14T21:23:18.959Z,1.65
2023-08-14T21:25:47.954Z,1.50
2023-08-14T21:28:15.164Z,1.65
2023-08-14T21:30:41.621Z,1.15
2023-08-14T21:33:08.149Z,1.48
2023-08-14T21:35:34.697Z,2.95
2023-08-14T21:38:01.155Z,1.98
2023-08-14T21:40:27.660Z,2.20
2023-08-14T21:42:54.133Z,3.17
2023-08-14T21:45:20.550Z,1.25
2023-08-14T21:47:47.126Z,1.83
2023-08-14T21:50:13.619Z,1.90
2023-08-14T21:52:40.061Z,1.90
2023-08-14T21:55:07.079Z,1.77
2023-08-14T21:57:33.535Z,2.15
2023-08-14T21:59:59.978Z,2.75
2023-08-14T22:02:26.481Z,2.20
2023-08-14T22:04:53.032Z,2.80
2023-08-14T22:07:19.636Z,2.65
2023-08-14T22:09:46.305Z,2.42
2023-08-14T22:12:12.783Z,2.15
2023-08-14T22:14:39.238Z,2.05
2023-08-14T22:17:05.710Z,1.67
2023-08-14T22:19:32.189Z,3.63
2023-08-14T22:21:58.839Z,1.52
2023-08-14T22:24:39.523Z,1.70
2023-08-14T22:27:06.963Z,1.90
2023-08-14T22:29:33.437Z,1.70
2023-08-14T22:31:59.858Z,1.38
2023-08-14T22:34:26.337Z,2.30
2023-08-14T22:36:52.800Z,1.67
2023-08-14T22:39:19.285Z,1.83
2023-08-14T22:41:45.713Z,2.65
2023-08-14T22:44:12.164Z,1.52
2023-08-14T22:46:38.610Z,2.80
2023-08-14T22:49:05.106Z,2.05
2023-08-14T22:51:31.570Z,2.33
2023-08-14T22:53:58.020Z,1.42
2023-08-14T22:56:24.452Z,1.17
2023-08-14T22:58:50.907Z,3.55
2023-08-14T23:01:17.404Z,2.72
2023-08-14T23:03:43.957Z,3.85
2023-08-14T23:06:10.422Z,2.08
2023-08-14T23:08:36.860Z,1.83
2023-08-14T23:11:03.320Z,1.50
2023-08-14T23:13:29.772Z,4.47
2023-08-14T23:15:56.273Z,1.73
2023-08-14T23:18:23.083Z,1.95
2023-08-14T23:20:49.527Z,2.00
2023-08-14T23:23:15.997Z,1.88
2023-08-14T23:25:42.455Z,1.80
2023-08-14T23:28:09.031Z,2.20
2023-08-14T23:30:39.065Z,2.03
2023-08-14T23:33:05.757Z,2.20
2023-08-14T23:35:32.350Z,1.88
2023-08-14T23:37:58.856Z,1.67
2023-08-14T23:40:25.335Z,2.70
2023-08-14T23:42:51.780Z,2.38
2023-08-14T23:45:18.224Z,2.10
2023-08-14T23:47:44.762Z,3.10
2023-08-14T23:50:11.223Z,1.80
2023-08-14T23:52:37.675Z,3.95
2023-08-14T23:55:04.450Z,2.40
2023-08-14T23:57:30.872Z,2.42
2023-08-14T23:59:57.341Z,2.28
